createdAt,value
2022-09-28T00:02:32.656Z,13
2022-09-28T00:07:44.739Z,13
2022-09-28T00:12:56.553Z,13
2022-09-28T00:18:08.527Z,13
2022-09-28T00:23:20.632Z,13
2022-09-28T00:28:32.674Z,13
2022-09-28T00:33:44.353Z,13
2022-09-28T00:38:56.298Z,13
2022-09-28T00:44:08.453Z,13
2022-09-28T00:49:20.324Z,13
2022-09-28T00:54:32.561Z,13
2022-09-28T00:59:44.454Z,13
2022-09-28T01:04:56.235Z,13
2022-09-28T01:10:08.347Z,13
2022-09-28T01:15:20.447Z,12
2022-09-28T01:20:32.393Z,13
2022-09-28T01:25:44.435Z,13
2022-09-28T01:30:56.301Z,13
2022-09-28T01:36:08.281Z,13
2022-09-28T01:41:20.185Z,13
2022-09-28T01:46:32.141Z,13
2022-09-28T01:51:43.950Z,13
2022-09-28T01:56:55.846Z,13
2022-09-28T02:02:07.999Z,13
2022-09-28T02:07:20.076Z,13
2022-09-28T02:12:32.001Z,13
2022-09-28T02:17:44.086Z,13
2022-09-28T02:22:55.928Z,13
2022-09-28T02:28:07.752Z,13
2022-09-28T02:33:19.636Z,13
2022-09-28T02:38:32.567Z,13
2022-09-28T02:43:44.092Z,13
2022-09-28T02:49:22.667Z,13
2022-09-28T02:54:30.636Z,13
2022-09-28T02:59:42.242Z,13
2022-09-28T03:04:54.306Z,13
2022-09-28T03:10:06.449Z,13
2022-09-28T03:15:18.291Z,13
2022-09-28T03:20:30.295Z,12
2022-09-28T03:25:42.295Z,13
2022-09-28T03:30:54.461Z,13
2022-09-28T03:36:06.436Z,13
2022-09-28T03:41:18.236Z,13
2022-09-28T03:46:30.202Z,13
2022-09-28T03:51:42.105Z,13
2022-09-28T03:56:54.076Z,13
2022-09-28T04:02:06.439Z,13
2022-09-28T04:07:18.474Z,12
2022-09-28T04:12:30.297Z,13
2022-09-28T04:17:42.380Z,13
2022-09-28T04:22:54.294Z,13
2022-09-28T04:28:06.436Z,13
2022-09-28T04:33:18.541Z,13
2022-09-28T04:38:53.916Z,13
2022-09-28T04:44:02.104Z,13
2022-09-28T04:49:14.359Z,13
2022-09-28T04:54:26.446Z,13
2022-09-28T04:59:38.382Z,13
2022-09-28T05:04:50.599Z,13
2022-09-28T05:10:03.188Z,13
2022-09-28T05:15:15.275Z,13
2022-09-28T05:20:27.402Z,13
2022-09-28T05:25:39.287Z,13
2022-09-28T05:30:51.399Z,13
2022-09-28T05:36:03.720Z,13
2022-09-28T05:41:15.482Z,13
2022-09-28T05:46:27.612Z,13
2022-09-28T05:51:39.564Z,14
2022-09-28T05:56:51.481Z,13
2022-09-28T06:02:03.683Z,14
2022-09-28T06:07:15.747Z,14
2022-09-28T06:12:27.623Z,14
2022-09-28T06:17:39.770Z,14
2022-09-28T06:22:51.865Z,14
2022-09-28T06:28:12.942Z,14
2022-09-28T06:33:30.920Z,14
2022-09-28T06:38:42.626Z,14
2022-09-28T06:43:54.457Z,14
2022-09-28T06:49:06.651Z,14
2022-09-28T06:54:19.354Z,15
2022-09-28T06:59:31.218Z,14
2022-09-28T07:04:43.176Z,15
2022-09-28T07:09:55.987Z,15
2022-09-28T07:15:07.733Z,15
2022-09-28T07:20:20.553Z,15
2022-09-28T07:25:32.463Z,15
2022-09-28T07:30:45.107Z,15
2022-09-28T07:35:56.861Z,15
2022-09-28T07:41:09.230Z,15
2022-09-28T07:46:21.759Z,15
2022-09-28T07:51:34.006Z,15
2022-09-28T07:56:46.125Z,16
2022-09-28T08:01:58.465Z,16
2022-09-28T08:07:10.695Z,16
2022-09-28T08:12:22.984Z,16
2022-09-28T08:17:35.122Z,16
2022-09-28T08:22:47.183Z,16
2022-09-28T08:27:59.418Z,17
2022-09-28T08:33:11.623Z,17
2022-09-28T08:38:23.404Z,17
2022-09-28T08:43:35.576Z,17
2022-09-28T08:49:25.592Z,17
2022-09-28T08:54:33.302Z,17
2022-09-28T08:59:45.324Z,17
2022-09-28T09:04:57.998Z,17
2022-09-28T09:10:09.563Z,17
2022-09-28T09:15:21.575Z,18
2022-09-28T09:20:33.440Z,17
2022-09-28T09:25:45.154Z,17
2022-09-28T09:30:57.185Z,17
2022-09-28T09:36:08.996Z,17
2022-09-28T09:41:20.641Z,17
2022-09-28T09:46:32.405Z,17
2022-09-28T09:51:44.182Z,16
2022-09-28T09:56:55.872Z,16
2022-09-28T10:02:12.362Z,16
2022-09-28T10:07:24.089Z,16
2022-09-28T10:12:35.956Z,16
2022-09-28T10:17:47.718Z,16
2022-09-28T10:22:59.349Z,16
2022-09-28T10:28:11.144Z,16
2022-09-28T10:33:22.922Z,16
2022-09-28T10:38:34.805Z,16
2022-09-28T10:43:56.140Z,16
2022-09-28T10:49:13.687Z,16
2022-09-28T10:54:25.664Z,16
2022-09-28T10:59:37.576Z,16
2022-09-28T11:04:49.629Z,16
2022-09-28T11:10:01.541Z,17
2022-09-28T11:15:14.208Z,17
2022-09-28T11:20:29.090Z,18
2022-09-28T11:25:41.043Z,19
2022-09-28T11:30:55.504Z,20
2022-09-28T11:41:18.699Z,19
2022-09-28T11:46:30.402Z,19
2022-09-28T12:02:01.375Z,18
2022-09-28T12:07:14.044Z,19
2022-09-28T12:12:25.955Z,18
2022-09-28T12:17:38.328Z,19
2022-09-28T12:22:50.517Z,19
2022-09-28T12:28:03.308Z,19
2022-09-28T12:33:15.914Z,19
2022-09-28T12:38:28.106Z,19
2022-09-28T12:43:40.222Z,19
2022-09-28T12:55:51.378Z,21
2022-09-28T13:16:33.542Z,20
2022-09-28T13:21:45.695Z,20
2022-09-28T13:26:58.395Z,21
2022-09-28T13:32:10.842Z,21
2022-09-28T13:37:23.191Z,20
2022-09-28T13:42:35.007Z,20
2022-09-28T13:47:47.239Z,21
2022-09-28T13:52:59.728Z,20
2022-09-28T13:58:11.908Z,20
2022-09-28T14:03:24.124Z,20
2022-09-28T14:08:36.498Z,20
2022-09-28T14:18:58.541Z,20
2022-09-28T14:24:10.751Z,20
2022-09-28T14:29:23.020Z,20
2022-09-28T14:34:35.366Z,20
2022-09-28T14:39:47.574Z,20
2022-09-28T14:45:07.793Z,20
2022-09-28T14:50:19.000Z,21
2022-09-28T14:55:31.706Z,21
2022-09-28T15:00:44.060Z,21
2022-09-28T15:05:56.578Z,21
2022-09-28T15:11:08.777Z,21
2022-09-28T15:16:21.043Z,21
2022-09-28T15:21:33.477Z,21
2022-09-28T15:26:45.848Z,21
2022-09-28T15:31:58.141Z,21
2022-09-28T15:37:10.557Z,21
2022-09-28T15:42:22.809Z,21
2022-09-28T15:47:34.849Z,21
2022-09-28T15:52:46.995Z,21
2022-09-28T15:57:59.122Z,20
2022-09-28T16:03:11.616Z,20
2022-09-28T16:08:24.003Z,20
2022-09-28T16:13:36.031Z,20
2022-09-28T16:18:48.117Z,20
2022-09-28T16:24:00.741Z,20
2022-09-28T16:29:13.201Z,20
2022-09-28T16:34:25.369Z,20
2022-09-28T16:39:37.344Z,20
2022-09-28T16:44:49.478Z,20
2022-09-28T16:50:01.478Z,20
2022-09-28T16:55:41.540Z,20
2022-09-28T17:00:49.477Z,20
2022-09-28T17:06:01.378Z,20
2022-09-28T17:11:25.174Z,20
2022-09-28T17:17:15.102Z,20
2022-09-28T17:22:23.905Z,20
2022-09-28T17:27:35.885Z,20
2022-09-28T17:32:47.932Z,20
2022-09-28T17:37:59.921Z,20
2022-09-28T17:43:12.026Z,20
2022-09-28T17:48:23.977Z,20
2022-09-28T17:53:36.042Z,20
2022-09-28T17:58:48.258Z,20
2022-09-28T18:04:00.354Z,20
2022-09-28T18:09:12.421Z,20
2022-09-28T18:14:24.426Z,20
2022-09-28T18:19:37.143Z,20
2022-09-28T18:24:48.990Z,20
2022-09-28T18:30:01.024Z,20
2022-09-28T18:35:13.057Z,20
2022-09-28T18:40:25.579Z,20
2022-09-28T18:45:37.851Z,20
2022-09-28T18:50:49.800Z,20
2022-09-28T18:56:02.138Z,20
2022-09-28T19:01:32.144Z,20
2022-09-28T19:06:41.899Z,20
2022-09-28T19:11:53.747Z,20
2022-09-28T19:17:05.818Z,20
2022-09-28T19:22:17.890Z,20
2022-09-28T19:27:30.143Z,20
2022-09-28T19:32:42.188Z,20
2022-09-28T19:37:54.378Z,20
2022-09-28T19:43:06.622Z,20
2022-09-28T19:48:18.643Z,20
2022-09-28T19:53:30.693Z,20
2022-09-28T19:58:43.881Z,20
2022-09-28T20:03:55.968Z,20
2022-09-28T20:09:08.123Z,20
2022-09-28T20:14:22.274Z,20
2022-09-28T20:19:45.249Z,20
2022-09-28T20:24:57.408Z,20
2022-09-28T20:30:09.447Z,20
2022-09-28T20:35:33.677Z,20
2022-09-28T20:40:43.089Z,19
2022-09-28T20:45:55.095Z,20
2022-09-28T20:51:07.212Z,20
2022-09-28T20:56:19.195Z,20
2022-09-28T21:01:31.343Z,20
2022-09-28T21:11:52.789Z,19
2022-09-28T21:17:05.274Z,19
2022-09-28T21:22:17.159Z,19
2022-09-28T21:32:37.718Z,17
2022-09-28T21:37:49.569Z,17
2022-09-28T21:43:01.188Z,17
2022-09-28T21:48:13.127Z,17
2022-09-28T21:53:25.070Z,17
2022-09-28T21:58:37.280Z,17
2022-09-28T22:03:49.426Z,18
2022-09-28T22:09:01.540Z,18
2022-09-28T22:14:13.480Z,18
2022-09-28T22:19:25.478Z,18
2022-09-28T22:24:37.513Z,18
2022-09-28T22:29:49.352Z,18
2022-09-28T22:35:01.529Z,18
2022-09-28T22:40:13.554Z,18
2022-09-28T22:45:25.701Z,18
2022-09-28T22:50:37.843Z,18
2022-09-28T22:55:49.901Z,18
2022-09-28T23:01:01.968Z,19
2022-09-28T23:06:13.951Z,19
2022-09-28T23:11:25.807Z,18
2022-09-28T23:16:37.630Z,18
2022-09-28T23:21:49.660Z,19
2022-09-28T23:27:01.744Z,19
2022-09-28T23:32:13.663Z,18
2022-09-28T23:37:25.800Z,19
2022-09-28T23:42:37.894Z,18
2022-09-28T23:47:49.983Z,19
2022-09-28T23:53:01.989Z,18
2022-09-28T23:58:14.032Z,18
